Sinsinawa, WI

4:21 AM CDT on May 24, 2015 (GMT -0500)
Eagle Valley | | Change Station
CLOSE
Current Station
Personal Weather Station
Location: Dubuque, IA
Elevation: 837 ft
Nearby Weather Stations

Elev 837 ft 42.54 °N, 90.66 °W | Updated 24 seconds ago

Overcast
Overcast
62.2 °F
Feels Like 62.2 °F
N
0.0
Wind Variable Wind from NW
Gusts 0.0 mph

Today
High -- | Low -- °F
--% Chance of Precip.
Yesterday
High -- | Low -- °F
Precip. -- in
5:32 AM 8:26 PM
Waxing Crescent, 37% visible
Pressure 30.14 in
Visibility 10.0 miles
Clouds Overcast 7000 ft
Dew Point 53 °F
Humidity 73%
Rainfall 0.00 in
Snow Depth Not available.
UV 0 out of 12
Pollen 7.30 out of 12
Air Quality Not available.
Flu Activity Sporadic
METAR KDBQ 240853Z AUTO 14007KT 10SM OVC070 17/11 A3015 RMK AO2 RAB05E14 SLP206 P0000 60000 T01670106 50001

More Conditions Fewer Conditions

Pressure 30.14 in
Visibility 10.0 miles
Clouds Overcast 7000 ft
Dew Point 53 °F
Humidity 73%
Rainfall 0.00 in
Snow Depth Not available.
UV 0 out of 12
Pollen 7.30 out of 12
Air Quality Not available.
Flu Activity Sporadic
METAR KDBQ 240853Z AUTO 14007KT 10SM OVC070 17/11 A3015 RMK AO2 RAB05E14 SLP206 P0000 60000 T01670106 50001

More Conditions Fewer Conditions

10-Day Weather Forecast

Almanac

Astronomy

May. 24, 2015 Rise Set
Actual Time
Civil Twilight
Nautical Twilight
Astronomical Twilight
Moon
Length of Visible Light
Length of Day
Tomorrow will be .
, % of the Moon is Illuminated

Today's Extremes

State Highs State Lows

Community

WunderPhotos

Upload Photos

1,823,701 photos uploaded!

WunderBlogs® & News

Nearby

Air Quality

  Air Quality AQ Index Pollutant
Not available.

Snow Depth

Station Depth Elevation

Earthquake Activity

City Distance Mag. Time & Date
Minimum magnitude displayed is 2.5.

Coastal Water Temperatures

Place Temperature

Stations

Nearby Weather Stations

Station Location Temp. Windchill Dew Point Humidity Wind Precip. Elev Updated Type